sensor_id;sensor_type;location;lat;lon;timestamp;pressure;altitude;pressure_sealevel;temperature;humidity
11347;BME280;5728;42.722;23.258;2022-11-20T00:02:17;94030.41;;;18.52;67.90
11347;BME280;5728;42.722;23.258;2022-11-20T00:04:44;94024.53;;;18.62;67.50
11347;BME280;5728;42.722;23.258;2022-11-20T00:07:11;94028.00;;;18.63;67.27
11347;BME280;5728;42.722;23.258;2022-11-20T00:09:37;94039.88;;;18.54;67.67
11347;BME280;5728;42.722;23.258;2022-11-20T00:12:04;94019.03;;;18.51;67.95
11347;BME280;5728;42.722;23.258;2022-11-20T00:14:31;94003.47;;;18.48;67.80
11347;BME280;5728;42.722;23.258;2022-11-20T00:16:58;94009.38;;;18.52;67.64
11347;BME280;5728;42.722;23.258;2022-11-20T00:19:26;94011.69;;;18.42;67.70
11347;BME280;5728;42.722;23.258;2022-11-20T00:21:53;93992.16;;;18.62;67.22
11347;BME280;5728;42.722;23.258;2022-11-20T00:24:20;94010.06;;;18.55;67.49
11347;BME280;5728;42.722;23.258;2022-11-20T00:26:47;94033.94;;;18.51;67.29
11347;BME280;5728;42.722;23.258;2022-11-20T00:29:14;94007.47;;;18.69;66.17
11347;BME280;5728;42.722;23.258;2022-11-20T00:31:41;94003.25;;;18.67;66.63
11347;BME280;5728;42.722;23.258;2022-11-20T00:34:08;94011.00;;;18.54;67.17
11347;BME280;5728;42.722;23.258;2022-11-20T00:36:36;94022.53;;;18.66;66.56
11347;BME280;5728;42.722;23.258;2022-11-20T00:39:03;94017.28;;;18.66;66.76
11347;BME280;5728;42.722;23.258;2022-11-20T00:41:30;94008.94;;;18.43;67.29
11347;BME280;5728;42.722;23.258;2022-11-20T00:43:57;94025.44;;;18.61;67.01
11347;BME280;5728;42.722;23.258;2022-11-20T00:46:25;94018.00;;;18.54;67.79
11347;BME280;5728;42.722;23.258;2022-11-20T00:48:52;94020.56;;;18.39;68.34
11347;BME280;5728;42.722;23.258;2022-11-20T00:51:21;94006.69;;;18.37;69.10
11347;BME280;5728;42.722;23.258;2022-11-20T00:53:50;94022.94;;;18.44;68.68
11347;BME280;5728;42.722;23.258;2022-11-20T00:56:18;94016.03;;;18.27;69.69
11347;BME280;5728;42.722;23.258;2022-11-20T00:58:46;94005.53;;;18.27;70.03
11347;BME280;5728;42.722;23.258;2022-11-20T01:01:15;94011.13;;;18.21;70.40
11347;BME280;5728;42.722;23.258;2022-11-20T01:03:44;93988.19;;;18.25;69.78
11347;BME280;5728;42.722;23.258;2022-11-20T01:06:12;93996.66;;;18.14;70.51
11347;BME280;5728;42.722;23.258;2022-11-20T01:08:40;94014.94;;;18.16;70.66
11347;BME280;5728;42.722;23.258;2022-11-20T01:11:10;93998.56;;;18.26;70.03
11347;BME280;5728;42.722;23.258;2022-11-20T01:13:38;93995.13;;;18.10;71.11
11347;BME280;5728;42.722;23.258;2022-11-20T01:16:07;93987.25;;;18.10;71.27
11347;BME280;5728;42.722;23.258;2022-11-20T01:18:34;93977.78;;;18.08;71.27
11347;BME280;5728;42.722;23.258;2022-11-20T01:21:03;93976.94;;;18.07;70.65
11347;BME280;5728;42.722;23.258;2022-11-20T01:23:33;93978.47;;;18.11;71.33
11347;BME280;5728;42.722;23.258;2022-11-20T01:26:01;93977.53;;;18.12;70.62
11347;BME280;5728;42.722;23.258;2022-11-20T01:28:30;93986.91;;;18.16;70.20
11347;BME280;5728;42.722;23.258;2022-11-20T01:30:58;93985.13;;;18.17;69.85
11347;BME280;5728;42.722;23.258;2022-11-20T01:33:25;93980.66;;;18.19;69.18
11347;BME280;5728;42.722;23.258;2022-11-20T01:35:52;93992.41;;;18.27;69.19
11347;BME280;5728;42.722;23.258;2022-11-20T01:38:19;93997.06;;;18.22;68.55
11347;BME280;5728;42.722;23.258;2022-11-20T01:40:53;93960.25;;;18.38;68.04
11347;BME280;5728;42.722;23.258;2022-11-20T01:43:20;93969.00;;;18.38;67.60
11347;BME280;5728;42.722;23.258;2022-11-20T01:45:56;93961.09;;;18.24;68.38
11347;BME280;5728;42.722;23.258;2022-11-20T01:48:26;93976.47;;;18.30;67.78
11347;BME280;5728;42.722;23.258;2022-11-20T01:50:55;93998.25;;;18.32;68.07
11347;BME280;5728;42.722;23.258;2022-11-20T01:53:25;93997.72;;;18.26;68.58
11347;BME280;5728;42.722;23.258;2022-11-20T01:55:56;93997.72;;;18.26;68.50
11347;BME280;5728;42.722;23.258;2022-11-20T01:58:28;93990.13;;;18.21;68.49
11347;BME280;5728;42.722;23.258;2022-11-20T02:00:58;93993.81;;;18.33;68.27
11347;BME280;5728;42.722;23.258;2022-11-20T02:03:26;93998.56;;;18.26;68.44
11347;BME280;5728;42.722;23.258;2022-11-20T02:05:57;93988.84;;;18.28;68.52
11347;BME280;5728;42.722;23.258;2022-11-20T02:08:26;93979.53;;;18.23;68.67
11347;BME280;5728;42.722;23.258;2022-11-20T02:10:54;93984.03;;;18.05;69.08
11347;BME280;5728;42.722;23.258;2022-11-20T02:13:21;93987.50;;;18.06;69.16
11347;BME280;5728;42.722;23.258;2022-11-20T02:16:09;93999.28;;;18.14;68.32
11347;BME280;5728;42.722;23.258;2022-11-20T02:18:37;94000.44;;;18.24;67.65
11347;BME280;5728;42.722;23.258;2022-11-20T02:21:07;93984.28;;;18.16;68.47
11347;BME280;5728;42.722;23.258;2022-11-20T02:23:38;93993.88;;;18.17;68.23
11347;BME280;5728;42.722;23.258;2022-11-20T02:26:09;93993.44;;;18.09;68.52
11347;BME280;5728;42.722;23.258;2022-11-20T02:28:38;93973.22;;;18.11;68.79
11347;BME280;5728;42.722;23.258;2022-11-20T02:31:05;93969.69;;;17.97;69.29
11347;BME280;5728;42.722;23.258;2022-11-20T02:33:31;93984.03;;;18.05;68.96
11347;BME280;5728;42.722;23.258;2022-11-20T02:35:58;93994.78;;;18.01;69.32
11347;BME280;5728;42.722;23.258;2022-11-20T02:38:25;93987.78;;;18.01;69.15
11347;BME280;5728;42.722;23.258;2022-11-20T02:40:52;93999.38;;;17.97;69.53
11347;BME280;5728;42.722;23.258;2022-11-20T02:43:20;93994.03;;;17.99;69.70
11347;BME280;5728;42.722;23.258;2022-11-20T02:45:46;94003.25;;;18.06;69.79
11347;BME280;5728;42.722;23.258;2022-11-20T02:48:13;93999.63;;;18.08;69.48
11347;BME280;5728;42.722;23.258;2022-11-20T02:50:40;94015.28;;;18.10;69.64
11347;BME280;5728;42.722;23.258;2022-11-20T02:53:07;94003.69;;;17.98;69.84
11347;BME280;5728;42.722;23.258;2022-11-20T02:55:34;94009.13;;;17.79;70.45
11347;BME280;5728;42.722;23.258;2022-11-20T02:58:01;94027.22;;;17.84;70.70
11347;BME280;5728;42.722;23.258;2022-11-20T03:00:29;94014.88;;;17.86;71.30
11347;BME280;5728;42.722;23.258;2022-11-20T03:02:57;94016.91;;;17.81;71.44
11347;BME280;5728;42.722;23.258;2022-11-20T03:05:23;94021.97;;;17.84;71.40
11347;BME280;5728;42.722;23.258;2022-11-20T03:07:50;94019.94;;;17.89;71.27
11347;BME280;5728;42.722;23.258;2022-11-20T03:10:17;94016.22;;;17.93;71.23
11347;BME280;5728;42.722;23.258;2022-11-20T03:12:43;94056.66;;;17.89;71.46
11347;BME280;5728;42.722;23.258;2022-11-20T03:15:10;94017.81;;;17.80;72.01
11347;BME280;5728;42.722;23.258;2022-11-20T03:17:39;94023.00;;;17.81;72.21
11347;BME280;5728;42.722;23.258;2022-11-20T03:20:07;94028.66;;;17.74;72.45
11347;BME280;5728;42.722;23.258;2022-11-20T03:22:34;94029.56;;;17.73;72.73
11347;BME280;5728;42.722;23.258;2022-11-20T03:25:01;94020.78;;;17.74;72.61
11347;BME280;5728;42.722;23.258;2022-11-20T03:27:31;94014.00;;;17.70;72.95
11347;BME280;5728;42.722;23.258;2022-11-20T03:29:58;94030.66;;;17.53;73.76
11347;BME280;5728;42.722;23.258;2022-11-20T03:32:25;94042.75;;;17.56;73.67
11347;BME280;5728;42.722;23.258;2022-11-20T03:34:53;94056.78;;;17.55;73.54
11347;BME280;5728;42.722;23.258;2022-11-20T03:37:20;94040.75;;;17.61;73.37
11347;BME280;5728;42.722;23.258;2022-11-20T03:39:46;94053.59;;;17.65;72.88
11347;BME280;5728;42.722;23.258;2022-11-20T03:42:13;94067.09;;;17.58;73.12
11347;BME280;5728;42.722;23.258;2022-11-20T03:44:53;94058.16;;;17.62;73.13
11347;BME280;5728;42.722;23.258;2022-11-20T03:47:20;94073.25;;;17.74;72.54
11347;BME280;5728;42.722;23.258;2022-11-20T03:49:47;94069.56;;;17.61;72.67
11347;BME280;5728;42.722;23.258;2022-11-20T03:52:15;94064.94;;;17.66;72.40
11347;BME280;5728;42.722;23.258;2022-11-20T03:54:42;94077.28;;;17.64;72.56
11347;BME280;5728;42.722;23.258;2022-11-20T03:57:08;94077.28;;;17.64;72.64
11347;BME280;5728;42.722;23.258;2022-11-20T03:59:35;94075.25;;;17.69;72.29
11347;BME280;5728;42.722;23.258;2022-11-20T04:02:02;94068.31;;;17.68;72.21
11347;BME280;5728;42.722;23.258;2022-11-20T04:04:29;94081.06;;;17.58;72.69
11347;BME280;5728;42.722;23.258;2022-11-20T04:06:55;94088.09;;;17.58;72.56
11347;BME280;5728;42.722;23.258;2022-11-20T04:09:23;94077.44;;;17.61;72.35
11347;BME280;5728;42.722;23.258;2022-11-20T04:11:50;94067.97;;;17.58;72.21
11347;BME280;5728;42.722;23.258;2022-11-20T04:14:17;94069.13;;;17.53;72.28
11347;BME280;5728;42.722;23.258;2022-11-20T04:16:44;94053.72;;;17.47;72.92
11347;BME280;5728;42.722;23.258;2022-11-20T04:19:12;94058.09;;;17.46;72.93
11347;BME280;5728;42.722;23.258;2022-11-20T04:21:39;94056.63;;;17.58;72.79
11347;BME280;5728;42.722;23.258;2022-11-20T04:24:07;94049.72;;;17.57;72.50
11347;BME280;5728;42.722;23.258;2022-11-20T04:26:37;94058.66;;;17.53;72.29
11347;BME280;5728;42.722;23.258;2022-11-20T04:29:04;94054.94;;;17.57;72.28
11347;BME280;5728;42.722;23.258;2022-11-20T04:31:32;94047.16;;;17.55;72.03
11347;BME280;5728;42.722;23.258;2022-11-20T04:34:00;94064.44;;;17.59;71.70
11347;BME280;5728;42.722;23.258;2022-11-20T04:36:28;94069.13;;;17.53;71.78
11347;BME280;5728;42.722;23.258;2022-11-20T04:38:57;94065.44;;;17.57;71.62
11347;BME280;5728;42.722;23.258;2022-11-20T04:41:25;94065.88;;;17.48;71.79
11347;BME280;5728;42.722;23.258;2022-11-20T04:43:55;94055.38;;;17.48;72.33
11347;BME280;5728;42.722;23.258;2022-11-20T04:46:25;94051.84;;;17.49;72.67
11347;BME280;5728;42.722;23.258;2022-11-20T04:48:52;94051.84;;;17.49;72.58
11347;BME280;5728;42.722;23.258;2022-11-20T04:51:19;94038.16;;;17.44;72.83
11347;BME280;5728;42.722;23.258;2022-11-20T04:53:46;94046.31;;;17.38;73.06
11347;BME280;5728;42.722;23.258;2022-11-20T04:56:13;94042.78;;;17.39;73.32
11347;BME280;5728;42.722;23.258;2022-11-20T04:58:40;94032.97;;;17.42;73.22
11347;BME280;5728;42.722;23.258;2022-11-20T05:01:10;94036.19;;;17.32;73.44
11347;BME280;5728;42.722;23.258;2022-11-20T05:03:37;94029.53;;;17.24;74.01
11347;BME280;5728;42.722;23.258;2022-11-20T05:06:05;94032.00;;;17.28;74.04
11347;BME280;5728;42.722;23.258;2022-11-20T05:08:33;94019.66;;;17.30;74.05
11347;BME280;5728;42.722;23.258;2022-11-20T05:11:01;94027.31;;;17.34;73.76
11347;BME280;5728;42.722;23.258;2022-11-20T05:13:27;94005.09;;;17.41;73.23
11347;BME280;5728;42.722;23.258;2022-11-20T05:15:54;94027.31;;;17.34;73.67
11347;BME280;5728;42.722;23.258;2022-11-20T05:18:22;94021.22;;;17.34;73.50
11347;BME280;5728;42.722;23.258;2022-11-20T05:20:54;94031.00;;;17.30;73.85
11347;BME280;5728;42.722;23.258;2022-11-20T05:23:21;94035.22;;;17.33;73.65
11347;BME280;5728;42.722;23.258;2022-11-20T05:25:52;94043.69;;;17.38;73.88
11347;BME280;5728;42.722;23.258;2022-11-20T05:28:19;94031.69;;;17.34;74.13
11347;BME280;5728;42.722;23.258;2022-11-20T05:30:46;94034.88;;;17.23;74.78
11347;BME280;5728;42.722;23.258;2022-11-20T05:33:12;94053.97;;;17.25;74.93
11347;BME280;5728;42.722;23.258;2022-11-20T05:35:41;94034.38;;;17.16;75.54
11347;BME280;5728;42.722;23.258;2022-11-20T05:38:07;94051.59;;;17.20;75.63
11347;BME280;5728;42.722;23.258;2022-11-20T05:40:34;94035.56;;;17.27;75.21
11347;BME280;5728;42.722;23.258;2022-11-20T05:43:01;94035.22;;;17.00;76.31
11347;BME280;5728;42.722;23.258;2022-11-20T05:45:28;94051.56;;;17.05;76.64
11347;BME280;5728;42.722;23.258;2022-11-20T05:47:58;94049.69;;;17.07;76.30
11347;BME280;5728;42.722;23.258;2022-11-20T05:50:25;94046.06;;;17.27;75.46
11347;BME280;5728;42.722;23.258;2022-11-20T05:52:53;94059.34;;;17.06;75.94
11347;BME280;5728;42.722;23.258;2022-11-20T05:55:19;94047.56;;;16.98;76.08
11347;BME280;5728;42.722;23.258;2022-11-20T05:57:46;94042.63;;;17.09;75.47
11347;BME280;5728;42.722;23.258;2022-11-20T06:00:14;94054.13;;;17.06;75.52
11347;BME280;5728;42.722;23.258;2022-11-20T06:02:41;94069.03;;;17.21;74.95
11347;BME280;5728;42.722;23.258;2022-11-20T06:05:08;94051.97;;;17.30;75.23
11347;BME280;5728;42.722;23.258;2022-11-20T06:07:35;94056.84;;;17.20;74.68
11347;BME280;5728;42.722;23.258;2022-11-20T06:10:03;94066.16;;;17.26;74.21
11347;BME280;5728;42.722;23.258;2022-11-20T06:12:31;94068.69;;;17.28;74.10
11347;BME280;5728;42.722;23.258;2022-11-20T06:14:59;94044.97;;;17.31;73.51
11347;BME280;5728;42.722;23.258;2022-11-20T06:17:26;94069.75;;;17.41;72.19
11347;BME280;5728;42.722;23.258;2022-11-20T06:19:53;94071.78;;;17.36;73.02
11347;BME280;5728;42.722;23.258;2022-11-20T06:22:19;94059.28;;;17.41;72.96
11347;BME280;5728;42.722;23.258;2022-11-20T06:24:47;94064.00;;;17.50;72.46
11347;BME280;5728;42.722;23.258;2022-11-20T06:27:15;94054.94;;;17.57;72.33
11347;BME280;5728;42.722;23.258;2022-11-20T06:29:42;94058.59;;;17.54;72.11
11347;BME280;5728;42.722;23.258;2022-11-20T06:32:09;94047.31;;;17.52;71.96
11347;BME280;5728;42.722;23.258;2022-11-20T06:34:36;94072.19;;;17.61;71.76
11347;BME280;5728;42.722;23.258;2022-11-20T06:37:03;94048.09;;;17.70;71.38
11347;BME280;5728;42.722;23.258;2022-11-20T06:39:29;94041.84;;;17.88;71.11
11347;BME280;5728;42.722;23.258;2022-11-20T06:41:57;94064.06;;;17.65;71.11
11347;BME280;5728;42.722;23.258;2022-11-20T06:44:25;94080.16;;;17.75;71.34
11347;BME280;5728;42.722;23.258;2022-11-20T06:46:52;94076.63;;;17.76;71.14
11347;BME280;5728;42.722;23.258;2022-11-20T06:49:19;94070.19;;;17.81;71.08
11347;BME280;5728;42.722;23.258;2022-11-20T06:51:45;94058.53;;;17.87;70.33
11347;BME280;5728;42.722;23.258;2022-11-20T06:54:12;94065.63;;;17.85;70.08
11347;BME280;5728;42.722;23.258;2022-11-20T06:56:39;94076.19;;;17.68;71.21
11347;BME280;5728;42.722;23.258;2022-11-20T06:59:06;94062.19;;;17.84;71.07
11347;BME280;5728;42.722;23.258;2022-11-20T07:01:34;94067.06;;;17.91;70.39
11347;BME280;5728;42.722;23.258;2022-11-20T07:04:01;94080.94;;;17.77;70.21
11347;BME280;5728;42.722;23.258;2022-11-20T07:06:28;94105.22;;;17.80;70.21
11347;BME280;5728;42.722;23.258;2022-11-20T07:08:55;94099.56;;;17.88;69.98
11347;BME280;5728;42.722;23.258;2022-11-20T07:11:21;94109.94;;;17.74;70.17
11347;BME280;5728;42.722;23.258;2022-11-20T07:13:48;94123.56;;;17.80;70.37
11347;BME280;5728;42.722;23.258;2022-11-20T07:16:15;94105.41;;;17.93;70.04
11347;BME280;5728;42.722;23.258;2022-11-20T07:18:43;94110.16;;;18.02;69.83
11347;BME280;5728;42.722;23.258;2022-11-20T07:21:10;94108.13;;;17.92;71.12
11347;BME280;5728;42.722;23.258;2022-11-20T07:23:37;94099.31;;;17.77;72.52
11347;BME280;5728;42.722;23.258;2022-11-20T07:26:05;94100.06;;;17.79;72.75
11347;BME280;5728;42.722;23.258;2022-11-20T07:28:32;94107.84;;;17.80;73.06
11347;BME280;5728;42.722;23.258;2022-11-20T07:31:00;94112.13;;;17.66;73.69
11347;BME280;5728;42.722;23.258;2022-11-20T07:33:27;94107.06;;;17.78;72.71
11347;BME280;5728;42.722;23.258;2022-11-20T07:35:55;94118.88;;;17.87;72.61
11347;BME280;5728;42.722;23.258;2022-11-20T07:38:21;94157.59;;;17.82;72.30
11347;BME280;5728;42.722;23.258;2022-11-20T07:40:48;94128.34;;;17.57;73.63
11347;BME280;5728;42.722;23.258;2022-11-20T07:43:19;94126.66;;;17.56;74.57
11347;BME280;5728;42.722;23.258;2022-11-20T07:45:46;94116.00;;;17.59;74.49
11347;BME280;5728;42.722;23.258;2022-11-20T07:48:13;94104.28;;;17.49;75.50
11347;BME280;5728;42.722;23.258;2022-11-20T07:50:40;94107.03;;;17.63;74.84
11347;BME280;5728;42.722;23.258;2022-11-20T07:53:08;94115.91;;;17.60;75.11
11347;BME280;5728;42.722;23.258;2022-11-20T07:55:35;94114.31;;;17.58;74.43
11347;BME280;5728;42.722;23.258;2022-11-20T07:58:01;94106.03;;;17.65;74.14
11347;BME280;5728;42.722;23.258;2022-11-20T08:00:28;94105.53;;;17.59;73.77
11347;BME280;5728;42.722;23.258;2022-11-20T08:02:55;94110.06;;;17.55;74.69
11347;BME280;5728;42.722;23.258;2022-11-20T08:05:22;94127.94;;;17.64;73.85
11347;BME280;5728;42.722;23.258;2022-11-20T08:07:49;94117.94;;;17.38;75.65
11347;BME280;5728;42.722;23.258;2022-11-20T08:10:21;94124.78;;;17.58;75.16
11347;BME280;5728;42.722;23.258;2022-11-20T08:12:49;94119.84;;;17.52;74.80
11347;BME280;5728;42.722;23.258;2022-11-20T08:15:34;94105.03;;;17.51;74.61
11347;BME280;5728;42.722;23.258;2022-11-20T08:18:04;94123.78;;;17.60;73.51
11347;BME280;5728;42.722;23.258;2022-11-20T08:20:32;94107.03;;;17.63;73.43
11347;BME280;5728;42.722;23.258;2022-11-20T08:23:01;94101.84;;;17.78;72.04
11347;BME280;5728;42.722;23.258;2022-11-20T08:25:30;94114.81;;;17.97;71.40
11347;BME280;5728;42.722;23.258;2022-11-20T08:27:57;94119.09;;;17.82;70.30
11347;BME280;5728;42.722;23.258;2022-11-20T08:30:25;94137.63;;;17.95;70.72
11347;BME280;5728;42.722;23.258;2022-11-20T08:32:52;94138.00;;;18.05;71.08
11347;BME280;5728;42.722;23.258;2022-11-20T08:35:19;94139.44;;;18.10;72.71
11347;BME280;5728;42.722;23.258;2022-11-20T08:37:46;94127.56;;;17.88;75.76
11347;BME280;5728;42.722;23.258;2022-11-20T08:40:13;94132.44;;;17.78;78.00
11347;BME280;5728;42.722;23.258;2022-11-20T08:42:47;94140.97;;;17.66;79.07
11347;BME280;5728;42.722;23.258;2022-11-20T08:45:15;94157.19;;;17.05;82.41
11347;BME280;5728;42.722;23.258;2022-11-20T08:47:42;94146.38;;;16.77;85.01
11347;BME280;5728;42.722;23.258;2022-11-20T08:50:09;94148.81;;;16.44;87.85
11347;BME280;5728;42.722;23.258;2022-11-20T08:52:36;94162.31;;;16.18;90.36
11347;BME280;5728;42.722;23.258;2022-11-20T08:55:04;94147.03;;;15.90;93.24
11347;BME280;5728;42.722;23.258;2022-11-20T08:57:31;94132.16;;;15.91;95.59
11347;BME280;5728;42.722;23.258;2022-11-20T09:00:00;94142.97;;;15.83;95.39
11347;BME280;5728;42.722;23.258;2022-11-20T09:02:26;94138.69;;;15.82;95.59
11347;BME280;5728;42.722;23.258;2022-11-20T09:04:53;94149.28;;;15.79;95.56
11347;BME280;5728;42.722;23.258;2022-11-20T09:07:20;94144.03;;;15.79;95.74
11347;BME280;5728;42.722;23.258;2022-11-20T09:09:47;94149.53;;;15.73;96.39
11347;BME280;5728;42.722;23.258;2022-11-20T09:12:14;94167.78;;;15.75;97.06
11347;BME280;5728;42.722;23.258;2022-11-20T09:14:41;94157.88;;;15.81;95.89
11347;BME280;5728;42.722;23.258;2022-11-20T09:17:11;94170.88;;;15.64;96.81
11347;BME280;5728;42.722;23.258;2022-11-20T09:19:40;94167.88;;;15.53;97.44
11347;BME280;5728;42.722;23.258;2022-11-20T09:22:07;94155.75;;;15.52;98.98
11347;BME280;5728;42.722;23.258;2022-11-20T09:24:34;94154.31;;;15.45;98.62
11347;BME280;5728;42.722;23.258;2022-11-20T09:27:04;94157.22;;;15.38;99.06
11347;BME280;5728;42.722;23.258;2022-11-20T09:29:31;94150.28;;;15.37;99.37
11347;BME280;5728;42.722;23.258;2022-11-20T09:31:58;94143.06;;;15.43;99.01
11347;BME280;5728;42.722;23.258;2022-11-20T09:34:26;94140.56;;;15.40;98.23
11347;BME280;5728;42.722;23.258;2022-11-20T09:36:54;94138.72;;;15.42;97.69
11347;BME280;5728;42.722;23.258;2022-11-20T09:39:20;94119.38;;;15.66;97.75
11347;BME280;5728;42.722;23.258;2022-11-20T09:41:56;94120.44;;;15.81;95.96
11347;BME280;5728;42.722;23.258;2022-11-20T09:44:40;94110.13;;;16.15;96.33
11347;BME280;5728;42.722;23.258;2022-11-20T09:47:18;94114.31;;;16.36;94.73
11347;BME280;5728;42.722;23.258;2022-11-20T09:50:02;94123.72;;;16.40;94.50
11347;BME280;5728;42.722;23.258;2022-11-20T09:52:37;94111.63;;;16.38;93.20
11347;BME280;5728;42.722;23.258;2022-11-20T09:55:10;94105.69;;;16.53;92.53
11347;BME280;5728;42.722;23.258;2022-11-20T09:57:42;94100.81;;;16.81;93.52
11347;BME280;5728;42.722;23.258;2022-11-20T10:00:12;94107.34;;;16.90;90.55
11347;BME280;5728;42.722;23.258;2022-11-20T10:02:43;94097.13;;;17.35;88.79
11347;BME280;5728;42.722;23.258;2022-11-20T10:05:18;94085.50;;;17.73;91.05
11347;BME280;5728;42.722;23.258;2022-11-20T10:07:50;94091.34;;;18.41;88.99
11347;BME280;5728;42.722;23.258;2022-11-20T10:10:29;94081.63;;;18.59;82.37
11347;BME280;5728;42.722;23.258;2022-11-20T10:13:09;94090.28;;;18.90;83.97
11347;BME280;5728;42.722;23.258;2022-11-20T10:15:50;94089.94;;;18.81;81.67
11347;BME280;5728;42.722;23.258;2022-11-20T10:18:27;94090.53;;;18.09;82.04
11347;BME280;5728;42.722;23.258;2022-11-20T10:21:07;94081.06;;;18.07;82.61
11347;BME280;5728;42.722;23.258;2022-11-20T10:24:10;94097.69;;;17.90;83.39
11347;BME280;5728;42.722;23.258;2022-11-20T10:26:47;94077.81;;;17.86;83.99
11347;BME280;5728;42.722;23.258;2022-11-20T10:29:22;94085.94;;;18.13;81.81
11347;BME280;5728;42.722;23.258;2022-11-20T10:31:56;94114.00;;;17.64;81.83
11347;BME280;5728;42.722;23.258;2022-11-20T10:34:30;94136.31;;;17.21;82.82
11347;BME280;5728;42.722;23.258;2022-11-20T10:37:02;94124.59;;;16.94;84.89
11347;BME280;5728;42.722;23.258;2022-11-20T10:39:35;94108.94;;;16.39;91.32
11347;BME280;5728;42.722;23.258;2022-11-20T10:42:08;94114.66;;;16.47;93.47
11347;BME280;5728;42.722;23.258;2022-11-20T10:44:39;94062.91;;;15.81;95.18
11347;BME280;5728;42.722;23.258;2022-11-20T10:47:28;94100.25;;;15.84;96.32
11347;BME280;5728;42.722;23.258;2022-11-20T10:49:58;94083.06;;;15.98;96.46
11347;BME280;5728;42.722;23.258;2022-11-20T10:52:34;94108.22;;;15.63;96.95
11347;BME280;5728;42.722;23.258;2022-11-20T10:55:11;94119.38;;;15.27;95.32
11347;BME280;5728;42.722;23.258;2022-11-20T10:57:53;94136.06;;;15.03;91.94
11347;BME280;5728;42.722;23.258;2022-11-20T11:00:21;94115.13;;;14.64;91.83
11347;BME280;5728;42.722;23.258;2022-11-20T11:02:49;94135.19;;;14.42;93.09
11347;BME280;5728;42.722;23.258;2022-11-20T11:05:25;94139.31;;;14.03;96.44
11347;BME280;5728;42.722;23.258;2022-11-20T11:07:56;94147.97;;;13.82;98.75
11347;BME280;5728;42.722;23.258;2022-11-20T11:10:27;94133.41;;;13.53;100.00
11347;BME280;5728;42.722;23.258;2022-11-20T11:12:56;94108.97;;;13.32;97.55
11347;BME280;5728;42.722;23.258;2022-11-20T11:15:28;94116.22;;;13.24;96.76
11347;BME280;5728;42.722;23.258;2022-11-20T11:17:56;94102.75;;;13.13;97.08
11347;BME280;5728;42.722;23.258;2022-11-20T11:20:24;94104.66;;;13.08;97.85
11347;BME280;5728;42.722;23.258;2022-11-20T11:22:53;94092.28;;;13.15;97.34
11347;BME280;5728;42.722;23.258;2022-11-20T11:25:28;94086.97;;;13.18;95.32
11347;BME280;5728;42.722;23.258;2022-11-20T11:27:58;94099.03;;;13.20;94.64
11347;BME280;5728;42.722;23.258;2022-11-20T11:30:29;94077.03;;;13.29;96.65
11347;BME280;5728;42.722;23.258;2022-11-20T11:33:05;94059.69;;;13.28;95.76
11347;BME280;5728;42.722;23.258;2022-11-20T11:35:33;94103.88;;;13.29;95.61
11347;BME280;5728;42.722;23.258;2022-11-20T11:38:05;94067.00;;;13.41;94.39
11347;BME280;5728;42.722;23.258;2022-11-20T11:40:40;94080.56;;;13.50;94.04
11347;BME280;5728;42.722;23.258;2022-11-20T11:43:17;94091.22;;;13.43;95.21
11347;BME280;5728;42.722;23.258;2022-11-20T11:45:58;94082.75;;;13.60;91.34
11347;BME280;5728;42.722;23.258;2022-11-20T11:48:25;94061.66;;;13.89;89.43
11347;BME280;5728;42.722;23.258;2022-11-20T11:50:54;94103.19;;;13.94;87.95
11347;BME280;5728;42.722;23.258;2022-11-20T11:53:23;94093.00;;;14.10;87.13
11347;BME280;5728;42.722;23.258;2022-11-20T11:55:58;94086.81;;;14.12;87.00
11347;BME280;5728;42.722;23.258;2022-11-20T11:58:41;94112.34;;;14.04;88.42
11347;BME280;5728;42.722;23.258;2022-11-20T12:01:20;94114.50;;;13.93;89.37
11347;BME280;5728;42.722;23.258;2022-11-20T12:03:55;94106.06;;;14.08;88.69
11347;BME280;5728;42.722;23.258;2022-11-20T12:06:28;94099.09;;;14.30;84.81
11347;BME280;5728;42.722;23.258;2022-11-20T12:09:01;94127.09;;;14.48;83.43
11347;BME280;5728;42.722;23.258;2022-11-20T12:11:34;94106.63;;;14.16;85.73
11347;BME280;5728;42.722;23.258;2022-11-20T12:14:11;94114.22;;;14.22;86.67
11347;BME280;5728;42.722;23.258;2022-11-20T12:16:40;94113.00;;;14.09;87.35
11347;BME280;5728;42.722;23.258;2022-11-20T12:19:09;94105.47;;;14.01;89.07
11347;BME280;5728;42.722;23.258;2022-11-20T12:21:47;94114.84;;;14.07;87.57
11347;BME280;5728;42.722;23.258;2022-11-20T12:24:42;94100.88;;;14.08;88.12
11347;BME280;5728;42.722;23.258;2022-11-20T12:27:35;94100.69;;;14.13;86.77
11347;BME280;5728;42.722;23.258;2022-11-20T12:30:09;94098.69;;;14.19;85.54
11347;BME280;5728;42.722;23.258;2022-11-20T12:35:52;94092.25;;;14.28;84.70
11347;BME280;5728;42.722;23.258;2022-11-20T12:38:39;94076.19;;;14.38;83.63
11347;BME280;5728;42.722;23.258;2022-11-20T12:41:16;94077.25;;;14.34;86.12
11347;BME280;5728;42.722;23.258;2022-11-20T12:44:21;94081.09;;;14.46;85.80
11347;BME280;5728;42.722;23.258;2022-11-20T12:47:17;94082.19;;;14.62;87.05
11347;BME280;5728;42.722;23.258;2022-11-20T12:49:54;94077.72;;;14.44;87.49
11347;BME280;5728;42.722;23.258;2022-11-20T12:52:35;94081.97;;;14.46;89.07
11347;BME280;5728;42.722;23.258;2022-11-20T12:55:16;94067.28;;;14.22;91.68
11347;BME280;5728;42.722;23.258;2022-11-20T12:57:50;94060.47;;;14.18;91.83
11347;BME280;5728;42.722;23.258;2022-11-20T13:00:21;94063.75;;;14.23;91.82
11347;BME280;5728;42.722;23.258;2022-11-20T13:03:03;94058.91;;;14.14;92.61
11347;BME280;5728;42.722;23.258;2022-11-20T13:05:46;94051.41;;;14.06;92.59
11347;BME280;5728;42.722;23.258;2022-11-20T13:08:20;94050.78;;;14.00;92.20
11347;BME280;5728;42.722;23.258;2022-11-20T13:10:52;94056.34;;;14.13;92.57
11347;BME280;5728;42.722;23.258;2022-11-20T13:13:26;94050.78;;;14.22;92.73
11347;BME280;5728;42.722;23.258;2022-11-20T13:16:02;94066.94;;;14.31;92.21
11347;BME280;5728;42.722;23.258;2022-11-20T13:18:38;94087.28;;;14.43;92.14